createdAt,value
2018-11-20T00:01:47.679Z,6.23
2018-11-20T00:05:05.085Z,6.33
2018-11-20T00:11:19.265Z,7.87
2018-11-20T00:14:06.848Z,5.83
2018-11-20T00:17:04.645Z,4.70
2018-11-20T00:23:16.895Z,4.10
2018-11-20T00:26:11.955Z,4.17
2018-11-20T00:29:29.992Z,7.00
2018-11-20T00:32:14.488Z,5.50
2018-11-20T00:35:03.505Z,3.50
2018-11-20T00:37:51.076Z,3.35
2018-11-20T00:40:39.308Z,5.70
2018-11-20T00:43:19.002Z,4.17
2018-11-20T00:46:26.237Z,12.03
2018-11-20T00:49:14.560Z,6.93
2018-11-20T00:51:55.596Z,8.07
2018-11-20T00:54:59.036Z,7.00
2018-11-20T00:57:56.721Z,6.10
2018-11-20T01:00:51.146Z,3.97
2018-11-20T01:03:54.778Z,5.97
2018-11-20T01:06:53.058Z,6.87
2018-11-20T01:09:41.563Z,5.37
2018-11-20T01:12:31.164Z,6.80
2018-11-20T01:15:26.179Z,3.53
2018-11-20T01:18:29.598Z,5.23
2018-11-20T01:21:17.216Z,4.00
2018-11-20T01:24:14.616Z,9.77
2018-11-20T01:27:12.653Z,5.08
2018-11-20T01:30:03.606Z,7.90
2018-11-20T01:33:01.909Z,4.05
2018-11-20T01:35:57.022Z,6.60
2018-11-20T01:38:45.016Z,4.60
2018-11-20T01:41:33.544Z,3.30
2018-11-20T01:44:22.585Z,7.43
2018-11-20T01:47:12.547Z,5.73
2018-11-20T01:50:08.975Z,9.43
2018-11-20T01:52:58.343Z,9.17
2018-11-20T01:55:46.494Z,4.63
2018-11-20T01:58:34.668Z,4.27
2018-11-20T02:01:22.395Z,5.27
2018-11-20T02:04:05.964Z,4.73
2018-11-20T02:06:53.132Z,5.72
2018-11-20T02:09:40.879Z,9.97
2018-11-20T02:12:35.459Z,5.87
2018-11-20T02:15:33.145Z,5.77
2018-11-20T02:18:26.186Z,8.40
2018-11-20T02:21:04.469Z,5.03
2018-11-20T02:23:56.266Z,6.93
2018-11-20T02:26:43.310Z,5.28
2018-11-20T02:29:38.270Z,5.40
2018-11-20T02:32:29.342Z,5.07
2018-11-20T02:35:16.877Z,10.00
2018-11-20T02:38:06.061Z,4.20
2018-11-20T02:40:59.098Z,5.77
2018-11-20T02:43:40.437Z,4.62
2018-11-20T02:46:23.472Z,6.40
2018-11-20T02:49:11.107Z,5.63
2018-11-20T02:51:58.895Z,4.67
2018-11-20T02:54:49.670Z,4.47
2018-11-20T02:57:31.900Z,4.23
2018-11-20T03:00:33.065Z,7.50
2018-11-20T03:03:10.792Z,7.27
2018-11-20T03:05:58.636Z,5.83
2018-11-20T03:08:45.959Z,7.10
2018-11-20T03:11:40.900Z,4.47
2018-11-20T03:14:30.093Z,4.60
2018-11-20T03:17:37.551Z,5.07
2018-11-20T03:20:25.900Z,6.87
2018-11-20T03:23:21.210Z,5.37
2018-11-20T03:26:08.956Z,8.20
2018-11-20T03:29:05.238Z,6.47
2018-11-20T03:31:54.309Z,6.17
2018-11-20T03:34:37.364Z,4.87
2018-11-20T03:37:41.784Z,4.43
2018-11-20T03:40:30.972Z,7.40
2018-11-20T03:43:22.657Z,9.20
2018-11-20T03:46:10.455Z,4.53
2018-11-20T03:49:01.534Z,6.90
2018-11-20T03:51:49.963Z,4.57
2018-11-20T03:54:32.355Z,4.60
2018-11-20T03:57:18.989Z,4.03
2018-11-20T04:00:06.804Z,6.93
2018-11-20T04:02:55.988Z,6.90
2018-11-20T04:05:45.129Z,5.47
2018-11-20T04:08:40.112Z,7.50
2018-11-20T04:11:25.494Z,5.93
2018-11-20T04:14:14.652Z,5.93
2018-11-20T04:17:02.356Z,4.83
2018-11-20T04:19:51.185Z,4.43
2018-11-20T04:22:43.009Z,5.93
2018-11-20T04:25:41.101Z,9.43
2018-11-20T04:28:36.053Z,6.83
2018-11-20T04:31:55.970Z,7.80
2018-11-20T04:34:47.442Z,5.10
2018-11-20T04:37:35.526Z,6.40
2018-11-20T04:40:24.310Z,6.23
2018-11-20T04:43:15.721Z,6.67
2018-11-20T04:46:17.568Z,7.33
2018-11-20T04:49:06.215Z,12.17
2018-11-20T04:52:03.358Z,8.13
2018-11-20T04:55:10.808Z,10.40
2018-11-20T04:58:18.410Z,7.10
2018-11-20T05:01:25.613Z,9.67
2018-11-20T05:04:14.748Z,9.20
2018-11-20T05:07:12.631Z,8.13
2018-11-20T05:10:01.794Z,8.63
2018-11-20T05:13:05.120Z,8.53
2018-11-20T05:15:44.796Z,7.07
2018-11-20T05:18:32.597Z,6.53
2018-11-20T05:21:33.875Z,5.53
2018-11-20T05:24:22.401Z,6.07
2018-11-20T05:27:14.120Z,5.90
2018-11-20T05:30:11.551Z,4.50
2018-11-20T05:32:56.383Z,7.47
2018-11-20T05:35:44.073Z,8.93
2018-11-20T05:38:35.542Z,7.83
2018-11-20T05:41:23.127Z,5.80
2018-11-20T05:44:12.266Z,5.33
2018-11-20T05:47:10.297Z,6.23
2018-11-20T05:50:08.169Z,8.47
2018-11-20T05:53:05.412Z,6.53
2018-11-20T05:55:57.434Z,5.43
2018-11-20T05:58:34.691Z,7.90
2018-11-20T06:01:32.894Z,15.50
2018-11-20T06:04:20.618Z,8.47
2018-11-20T06:07:21.839Z,12.83
2018-11-20T06:10:05.969Z,10.07
2018-11-20T06:12:54.526Z,8.20
2018-11-20T06:15:42.319Z,11.17
2018-11-20T06:18:40.292Z,10.47
2018-11-20T06:21:26.813Z,11.85
2018-11-20T06:24:27.935Z,12.87
2018-11-20T06:27:15.674Z,14.53
2018-11-20T06:30:04.155Z,13.03
2018-11-20T06:32:42.550Z,11.93
2018-11-20T06:36:00.681Z,7.83
2018-11-20T06:39:00.222Z,11.47
2018-11-20T06:41:47.136Z,11.07
2018-11-20T06:44:51.486Z,11.67
2018-11-20T06:47:58.225Z,10.67
2018-11-20T06:50:59.326Z,15.87
2018-11-20T06:53:46.525Z,10.93
2018-11-20T06:56:44.004Z,14.53
2018-11-20T06:59:41.102Z,16.40
2018-11-20T07:02:22.262Z,12.23
2018-11-20T07:05:16.379Z,14.07
2018-11-20T07:08:04.899Z,14.47
2018-11-20T07:10:49.795Z,18.90
2018-11-20T07:13:42.294Z,13.03
2018-11-20T07:16:46.436Z,15.37
2018-11-20T07:19:45.313Z,18.67
2018-11-20T07:22:40.367Z,13.43
2018-11-20T07:25:32.242Z,13.67
2018-11-20T07:28:23.444Z,15.47
2018-11-20T07:31:10.899Z,17.57
2018-11-20T07:34:02.509Z,14.90
2018-11-20T07:36:49.965Z,18.67
2018-11-20T07:39:41.069Z,20.20
2018-11-20T07:42:45.166Z,13.70
2018-11-20T07:45:32.237Z,16.33
2018-11-20T07:48:19.357Z,15.43
2018-11-20T07:51:08.028Z,19.90
2018-11-20T07:53:56.150Z,15.53
2018-11-20T07:56:49.191Z,17.90
2018-11-20T07:59:37.150Z,15.83
2018-11-20T08:02:25.241Z,25.47
2018-11-20T08:05:06.046Z,19.23
2018-11-20T08:07:52.075Z,19.17
2018-11-20T08:10:39.378Z,19.43
2018-11-20T08:13:25.749Z,17.57
2018-11-20T08:16:03.396Z,19.90
2018-11-20T08:18:59.204Z,23.63
2018-11-20T08:21:46.858Z,22.50
2018-11-20T08:24:42.169Z,18.27
2018-11-20T08:27:31.563Z,22.03
2018-11-20T08:30:14.733Z,23.57
2018-11-20T08:33:08.480Z,23.27
2018-11-20T08:35:55.998Z,22.13
2018-11-20T08:38:52.300Z,24.03
2018-11-20T08:41:47.613Z,25.10
2018-11-20T08:44:35.176Z,22.70
2018-11-20T08:47:22.375Z,25.17
2018-11-20T08:50:09.405Z,23.07
2018-11-20T08:52:56.320Z,24.53
2018-11-20T08:55:43.241Z,24.80
2018-11-20T08:58:30.004Z,20.80
2018-11-20T09:01:24.206Z,24.70
2018-11-20T09:04:27.793Z,21.83
2018-11-20T09:07:16.216Z,23.80
2018-11-20T09:10:05.389Z,23.30
2018-11-20T09:12:56.477Z,27.25
2018-11-20T09:15:44.364Z,24.05
2018-11-20T09:18:35.599Z,29.23
2018-11-20T09:21:22.638Z,21.63
2018-11-20T09:24:09.685Z,23.07
2018-11-20T09:27:04.129Z,22.53
2018-11-20T09:29:52.546Z,21.97
2018-11-20T09:32:31.579Z,23.17
2018-11-20T09:35:19.127Z,22.53
2018-11-20T09:38:10.497Z,21.93
2018-11-20T09:41:18.734Z,21.60
2018-11-20T09:44:14.355Z,22.80
2018-11-20T09:47:01.081Z,23.33
2018-11-20T09:49:56.364Z,21.37
2018-11-20T09:52:43.371Z,23.07
2018-11-20T09:55:30.368Z,21.83
2018-11-20T09:58:25.261Z,21.97
2018-11-20T10:01:13.218Z,21.70
2018-11-20T10:04:31.285Z,19.70
2018-11-20T10:11:09.077Z,23.30
2018-11-20T10:14:19.963Z,22.77
2018-11-20T10:17:20.250Z,23.27
2018-11-20T10:20:12.247Z,24.30
2018-11-20T10:23:00.067Z,30.13
2018-11-20T10:26:03.703Z,27.60
2018-11-20T10:28:50.882Z,24.77
2018-11-20T10:31:38.721Z,29.25
2018-11-20T10:34:33.188Z,27.13
2018-11-20T10:37:36.536Z,26.43
2018-11-20T10:40:35.500Z,31.07
2018-11-20T10:43:23.577Z,28.83
2018-11-20T10:46:12.872Z,32.07
2018-11-20T10:49:17.282Z,27.57
2018-11-20T10:52:18.657Z,31.07
2018-11-20T10:55:05.765Z,27.70
2018-11-20T10:57:53.575Z,25.20
2018-11-20T11:00:40.868Z,29.30
2018-11-20T11:03:28.712Z,26.50
2018-11-20T11:06:15.823Z,24.80
2018-11-20T11:09:03.157Z,30.07
2018-11-20T11:11:54.429Z,27.10
2018-11-20T11:14:41.491Z,29.40
2018-11-20T11:17:36.226Z,33.93
2018-11-20T11:20:25.131Z,30.50
2018-11-20T11:23:16.200Z,31.80
2018-11-20T11:26:03.829Z,29.95
2018-11-20T11:28:40.474Z,37.80
2018-11-20T11:31:35.017Z,32.87
2018-11-20T11:34:26.390Z,35.97
2018-11-20T11:37:23.241Z,34.33
2018-11-20T11:40:05.919Z,32.97
2018-11-20T11:42:54.432Z,33.33
2018-11-20T11:48:54.556Z,35.33
2018-11-20T11:51:44.054Z,34.40
2018-11-20T11:54:32.250Z,34.60
2018-11-20T12:00:33.510Z,36.73
2018-11-20T12:03:20.947Z,34.77
2018-11-20T12:06:22.287Z,35.60
2018-11-20T12:09:29.737Z,37.60
2018-11-20T12:12:21.624Z,34.43
2018-11-20T12:15:10.788Z,35.97
2018-11-20T12:17:58.604Z,39.30
2018-11-20T12:20:45.842Z,34.03
2018-11-20T12:23:37.325Z,36.97
2018-11-20T12:26:24.060Z,32.83
2018-11-20T12:29:11.165Z,32.60
2018-11-20T12:32:00.260Z,32.57
2018-11-20T12:34:54.398Z,35.70
2018-11-20T12:37:40.695Z,34.03
2018-11-20T12:40:29.786Z,35.70
2018-11-20T12:43:18.605Z,32.17
2018-11-20T12:46:22.994Z,30.17
2018-11-20T12:49:12.164Z,31.77
2018-11-20T12:52:02.658Z,33.97
2018-11-20T12:54:52.335Z,35.30
2018-11-20T12:57:38.854Z,32.93
2018-11-20T13:00:27.019Z,35.87
2018-11-20T13:03:34.132Z,34.75
2018-11-20T13:06:38.543Z,41.80
2018-11-20T13:09:28.666Z,37.80
2018-11-20T13:12:16.905Z,36.07
2018-11-20T13:15:04.035Z,35.43
2018-11-20T13:18:01.233Z,35.43
2018-11-20T13:20:50.589Z,30.17
2018-11-20T13:23:40.314Z,30.50
2018-11-20T13:26:28.166Z,31.43
2018-11-20T13:29:28.997Z,34.20
2018-11-20T13:32:18.185Z,54.23
2018-11-20T13:35:21.780Z,31.70
2018-11-20T13:38:08.629Z,34.67
2018-11-20T13:41:18.166Z,33.10
2018-11-20T13:44:15.203Z,34.63
2018-11-20T13:47:04.094Z,31.20
2018-11-20T13:50:11.814Z,32.03
2018-11-20T13:53:08.370Z,31.23
2018-11-20T13:55:56.757Z,33.87
2018-11-20T13:58:44.000Z,30.07
2018-11-20T14:01:37.750Z,29.37
2018-11-20T14:04:28.728Z,33.93
2018-11-20T14:07:27.068Z,31.43
2018-11-20T14:10:24.871Z,34.47
2018-11-20T14:13:22.289Z,33.30
2018-11-20T14:16:19.554Z,31.67
2018-11-20T14:19:22.897Z,37.50
2018-11-20T14:22:10.468Z,31.63
2018-11-20T14:25:07.474Z,35.20
2018-11-20T14:28:14.274Z,33.13
2018-11-20T14:31:05.656Z,33.87
2018-11-20T14:33:53.361Z,42.37
2018-11-20T14:36:42.180Z,33.07
2018-11-20T14:39:29.597Z,39.57
2018-11-20T14:42:17.181Z,36.93
2018-11-20T14:45:05.970Z,35.13
2018-11-20T14:48:02.193Z,35.50
2018-11-20T14:50:49.434Z,38.03
2018-11-20T14:53:38.532Z,42.77
2018-11-20T14:56:18.542Z,36.53
2018-11-20T14:59:01.681Z,37.27
2018-11-20T15:01:55.943Z,41.33
2018-11-20T15:04:43.031Z,37.47
2018-11-20T15:07:44.260Z,35.40
2018-11-20T15:10:32.779Z,40.70
2018-11-20T15:14:01.987Z,39.17
2018-11-20T15:16:54.185Z,42.70
2018-11-20T15:19:41.344Z,38.27
2018-11-20T15:22:29.343Z,39.17
2018-11-20T15:25:11.692Z,41.17
2018-11-20T15:28:06.052Z,36.80
2018-11-20T15:30:54.469Z,38.90
2018-11-20T15:33:49.519Z,65.57
2018-11-20T15:36:38.018Z,45.27
2018-11-20T15:39:40.481Z,39.33
2018-11-20T15:42:30.240Z,47.10
2018-11-20T15:45:17.330Z,42.10
2018-11-20T15:48:22.681Z,43.40
2018-11-20T15:51:06.391Z,43.53
2018-11-20T15:54:05.962Z,40.13
2018-11-20T15:57:13.205Z,40.80
2018-11-20T16:00:12.510Z,40.10
2018-11-20T16:03:00.452Z,40.63
2018-11-20T16:06:01.723Z,43.40
2018-11-20T16:08:50.945Z,43.40
2018-11-20T16:11:38.627Z,41.00
2018-11-20T16:14:39.839Z,44.90
2018-11-20T16:17:24.127Z,44.30
2018-11-20T16:20:22.283Z,49.23
2018-11-20T16:23:14.308Z,46.80
2018-11-20T16:26:02.596Z,48.43
2018-11-20T16:29:06.991Z,47.60
2018-11-20T16:32:08.145Z,48.30
2018-11-20T16:35:09.038Z,43.30
2018-11-20T16:37:55.913Z,50.33
2018-11-20T16:40:42.826Z,43.33
2018-11-20T16:43:30.020Z,45.60
2018-11-20T16:46:23.879Z,42.57
2018-11-20T16:49:04.142Z,45.43
2018-11-20T16:51:51.044Z,49.85
2018-11-20T16:54:58.089Z,43.85
2018-11-20T16:57:53.245Z,44.07
2018-11-20T17:00:42.444Z,46.10
2018-11-20T17:03:27.424Z,59.23
2018-11-20T17:06:09.362Z,67.27
2018-11-20T17:08:56.166Z,47.63
2018-11-20T17:12:02.683Z,43.07
2018-11-20T17:14:51.801Z,52.40
2018-11-20T17:17:49.278Z,59.17
2018-11-20T17:20:50.502Z,54.08
2018-11-20T17:23:55.141Z,50.45
2018-11-20T17:26:43.539Z,54.67
2018-11-20T17:29:30.734Z,46.17
2018-11-20T17:32:18.258Z,42.40
2018-11-20T17:35:06.113Z,43.07
2018-11-20T17:38:09.805Z,42.93
2018-11-20T17:41:24.527Z,43.97
2018-11-20T17:50:36.465Z,101.77
2018-11-20T17:56:48.466Z,41.73
2018-11-20T18:06:08.399Z,55.37
2018-11-20T18:09:10.047Z,50.20
2018-11-20T18:12:23.340Z,50.67
2018-11-20T18:39:39.288Z,45.47
2018-11-20T18:42:37.527Z,52.20
2018-11-20T18:45:25.071Z,51.00
2018-11-20T18:48:19.203Z,43.07
2018-11-20T18:51:12.789Z,42.47
2018-11-20T18:54:08.054Z,55.73
2018-11-20T18:56:55.829Z,52.60
2018-11-20T18:59:42.939Z,44.97
2018-11-20T19:02:30.362Z,48.87
2018-11-20T19:05:12.601Z,45.60
2018-11-20T19:08:11.879Z,39.47
2018-11-20T19:10:55.371Z,44.58
2018-11-20T19:13:44.662Z,46.60
2018-11-20T19:16:45.208Z,46.33
2018-11-20T19:19:34.291Z,48.67
2018-11-20T19:22:26.778Z,47.47
2018-11-20T19:25:09.275Z,49.73
2018-11-20T19:27:56.752Z,40.37
2018-11-20T19:30:47.659Z,53.33
2018-11-20T19:33:36.138Z,50.73
2018-11-20T19:36:23.404Z,41.10
2018-11-20T19:39:14.553Z,49.00
2018-11-20T19:41:58.974Z,44.77
2018-11-20T19:44:48.088Z,45.60
2018-11-20T19:47:42.945Z,40.57
2018-11-20T19:50:46.995Z,45.07
2018-11-20T19:53:28.663Z,41.27
2018-11-20T19:56:20.414Z,42.37
2018-11-20T19:59:14.942Z,42.00
2018-11-20T20:02:01.718Z,37.97
2018-11-20T20:04:56.752Z,43.47
2018-11-20T20:07:44.546Z,46.30
2018-11-20T20:10:32.104Z,47.50
2018-11-20T20:13:19.987Z,54.40
2018-11-20T20:16:21.342Z,51.57
2018-11-20T20:19:20.285Z,55.17
2018-11-20T20:22:07.918Z,47.83
2018-11-20T20:25:14.614Z,48.03
2018-11-20T20:28:02.196Z,52.60
2018-11-20T20:31:06.573Z,49.57
2018-11-20T20:33:54.363Z,44.90
2018-11-20T20:36:49.432Z,49.03
2018-11-20T20:39:38.643Z,45.53
2018-11-20T20:42:25.812Z,47.60
2018-11-20T20:45:13.063Z,43.50
2018-11-20T20:48:01.955Z,45.47
2018-11-20T20:50:48.540Z,47.87
2018-11-20T20:53:43.700Z,47.50
2018-11-20T20:56:35.005Z,42.47
2018-11-20T20:59:27.798Z,41.37
2018-11-20T21:02:11.605Z,42.27
2018-11-20T21:05:13.960Z,45.67
2018-11-20T21:08:02.516Z,45.57
2018-11-20T21:10:51.606Z,44.53
2018-11-20T21:13:39.180Z,48.27
2018-11-20T21:16:30.698Z,45.87
2018-11-20T21:19:19.106Z,45.57
2018-11-20T21:22:11.274Z,50.63
2018-11-20T21:25:06.717Z,42.70
2018-11-20T21:28:03.817Z,46.03
2018-11-20T21:31:01.948Z,51.83
2018-11-20T21:34:00.134Z,45.23
2018-11-20T21:36:49.339Z,47.25
2018-11-20T21:39:34.810Z,44.30
2018-11-20T21:42:22.520Z,48.10
2018-11-20T21:45:07.242Z,53.17
2018-11-20T21:47:58.466Z,44.77
2018-11-20T21:50:53.311Z,51.27
2018-11-20T21:53:40.460Z,46.20
2018-11-20T21:56:32.599Z,49.60
2018-11-20T21:59:34.049Z,49.43
2018-11-20T22:02:20.331Z,48.03
2018-11-20T22:05:21.128Z,48.20
2018-11-20T22:08:24.941Z,53.90
2018-11-20T22:11:14.594Z,52.17
2018-11-20T22:14:18.779Z,55.08
2018-11-20T22:17:17.178Z,49.83
2018-11-20T22:20:06.300Z,49.10
2018-11-20T22:23:13.769Z,52.80
2018-11-20T22:26:02.925Z,54.43
2018-11-20T22:29:14.766Z,51.23
2018-11-20T22:32:04.033Z,49.83
2018-11-20T22:34:49.849Z,57.73
2018-11-20T22:37:32.850Z,50.60
2018-11-20T22:40:40.248Z,53.17
2018-11-20T22:43:34.380Z,51.43
2018-11-20T22:46:25.441Z,48.57
2018-11-20T22:49:13.729Z,53.07
2018-11-20T22:52:06.592Z,52.30
2018-11-20T22:54:56.420Z,56.02
2018-11-20T22:57:44.491Z,56.47
2018-11-20T23:00:33.083Z,62.30
2018-11-20T23:03:36.283Z,54.37
2018-11-20T23:06:26.393Z,48.80
2018-11-20T23:08:56.120Z,51.33
2018-11-20T23:11:26.518Z,51.65
2018-11-20T23:13:57.025Z,51.97
2018-11-20T23:16:27.549Z,53.77
2018-11-20T23:18:57.236Z,52.77
2018-11-20T23:21:27.604Z,57.08
2018-11-20T23:23:58.250Z,54.60
2018-11-20T23:26:28.775Z,53.10
2018-11-20T23:28:58.506Z,54.50
2018-11-20T23:31:29.120Z,48.80
2018-11-20T23:33:59.605Z,55.00
2018-11-20T23:36:30.068Z,51.87
2018-11-20T23:39:00.586Z,60.33
2018-11-20T23:41:31.354Z,52.97
2018-11-20T23:44:01.903Z,56.53
2018-11-20T23:46:31.839Z,54.20
2018-11-20T23:49:02.471Z,51.40
2018-11-20T23:51:33.095Z,55.33
2018-11-20T23:54:04.120Z,55.73
2018-11-20T23:56:33.725Z,56.87
2018-11-20T23:59:05.921Z,63.20
